createdAt,value
2018-04-10T00:00:59.308Z,15.10
2018-04-10T00:03:27.512Z,15.00
2018-04-10T00:05:55.719Z,15.10
2018-04-10T00:08:23.155Z,15.00
2018-04-10T00:10:51.381Z,15.10
2018-04-10T00:13:18.828Z,15.10
2018-04-10T00:15:46.272Z,15.10
2018-04-10T00:18:13.734Z,15.10
2018-04-10T00:20:41.167Z,15.00
2018-04-10T00:23:08.615Z,15.00
2018-04-10T00:25:36.829Z,15.00
2018-04-10T00:28:04.274Z,15.00
2018-04-10T00:30:31.713Z,15.00
2018-04-10T00:32:59.148Z,15.00
2018-04-10T00:35:27.359Z,14.90
2018-04-10T00:37:54.822Z,14.90
2018-04-10T00:40:22.251Z,14.90
2018-04-10T00:42:49.695Z,14.90
2018-04-10T00:45:17.907Z,14.80
2018-04-10T00:47:45.349Z,14.80
2018-04-10T00:50:12.792Z,14.70
2018-04-10T00:52:40.227Z,14.70
2018-04-10T00:55:08.444Z,14.60
2018-04-10T00:57:35.887Z,14.60
2018-04-10T01:00:04.085Z,14.50
2018-04-10T01:02:31.523Z,14.50
2018-04-10T01:04:58.963Z,14.50
2018-04-10T01:07:26.404Z,14.40
2018-04-10T01:09:54.623Z,14.40
2018-04-10T01:12:22.052Z,14.40
2018-04-10T01:14:49.495Z,14.40
2018-04-10T01:17:17.704Z,14.20
2018-04-10T01:19:45.150Z,14.20
2018-04-10T01:22:12.582Z,14.20
2018-04-10T01:24:40.782Z,14.10
2018-04-10T01:27:08.216Z,14.20
2018-04-10T01:29:36.435Z,14.10
2018-04-10T01:32:03.867Z,14.10
2018-04-10T01:34:31.309Z,14.10
2018-04-10T01:36:58.752Z,14.10
2018-04-10T01:39:26.960Z,14.00
2018-04-10T01:41:54.398Z,14.00
2018-04-10T01:44:21.841Z,13.90
2018-04-10T01:46:50.044Z,13.80
2018-04-10T01:49:17.479Z,13.70
2018-04-10T01:51:45.680Z,13.70
2018-04-10T01:54:13.115Z,13.70
2018-04-10T01:56:40.557Z,13.80
2018-04-10T01:59:08.761Z,13.80
2018-04-10T02:01:36.204Z,13.80
2018-04-10T02:04:03.643Z,13.80
2018-04-10T02:06:31.848Z,13.70
2018-04-10T02:08:59.290Z,13.70
2018-04-10T02:11:26.736Z,13.70
2018-04-10T02:13:54.939Z,13.60
2018-04-10T02:16:22.948Z,13.60
2018-04-10T02:18:50.380Z,13.60
2018-04-10T02:21:17.824Z,13.60
2018-04-10T02:23:45.265Z,13.60
2018-04-10T02:26:12.709Z,13.60
2018-04-10T02:28:40.154Z,13.50
2018-04-10T02:31:08.356Z,13.50
2018-04-10T02:33:35.798Z,13.40
2018-04-10T02:36:03.228Z,13.50
2018-04-10T02:38:30.677Z,13.50
2018-04-10T02:40:58.112Z,13.40
2018-04-10T02:43:25.559Z,13.40
2018-04-10T02:45:52.992Z,13.40
2018-04-10T02:48:20.435Z,13.40
2018-04-10T02:50:47.875Z,13.40
2018-04-10T02:53:16.075Z,13.30
2018-04-10T02:55:43.520Z,13.30
2018-04-10T02:58:10.960Z,13.30
2018-04-10T03:00:39.165Z,13.30
2018-04-10T03:03:07.516Z,13.30
2018-04-10T03:05:35.719Z,13.30
2018-04-10T03:08:03.167Z,13.30
2018-04-10T03:10:30.603Z,13.40
2018-04-10T03:12:58.809Z,13.50
2018-04-10T03:15:26.235Z,13.40
2018-04-10T03:17:54.445Z,13.60
2018-04-10T03:20:21.885Z,13.50
2018-04-10T03:22:49.324Z,13.60
2018-04-10T03:25:16.761Z,13.60
2018-04-10T03:27:44.210Z,13.60
2018-04-10T03:30:11.635Z,13.60
2018-04-10T03:32:39.075Z,13.60
2018-04-10T03:35:06.511Z,13.60
2018-04-10T03:37:34.720Z,13.50
2018-04-10T03:40:02.152Z,13.40
2018-04-10T03:42:29.601Z,13.50
2018-04-10T03:44:57.117Z,13.50
2018-04-10T03:47:24.551Z,13.50
2018-04-10T03:49:51.991Z,13.50
2018-04-10T03:52:19.420Z,13.50
2018-04-10T03:54:46.873Z,13.50
2018-04-10T03:57:15.083Z,13.60
2018-04-10T03:59:42.524Z,13.50
2018-04-10T04:02:09.959Z,13.60
2018-04-10T04:04:38.160Z,13.60
2018-04-10T04:07:05.595Z,13.50
2018-04-10T04:09:33.037Z,13.50
2018-04-10T04:12:01.231Z,13.40
2018-04-10T04:14:28.677Z,13.40
2018-04-10T04:17:08.692Z,13.40
2018-04-10T04:19:48.048Z,13.40
2018-04-10T04:35:41.747Z,13.20
2018-04-10T04:38:09.180Z,13.10
2018-04-10T04:40:36.625Z,13.00
2018-04-10T04:43:04.815Z,13.00
2018-04-10T04:45:32.264Z,13.00
2018-04-10T04:47:59.700Z,13.00
2018-04-10T04:50:27.914Z,12.90
2018-04-10T04:52:55.346Z,12.90
2018-04-10T04:55:23.555Z,12.90
2018-04-10T04:57:50.987Z,12.90
2018-04-10T05:00:18.437Z,12.90
2018-04-10T05:02:45.868Z,12.90
2018-04-10T05:05:13.308Z,13.00
2018-04-10T05:07:40.748Z,13.00
2018-04-10T05:10:08.194Z,13.00
2018-04-10T05:12:35.619Z,13.00
2018-04-10T05:15:03.077Z,13.00
2018-04-10T05:17:30.508Z,12.90
2018-04-10T05:19:58.733Z,12.90
2018-04-10T05:22:26.168Z,12.90
2018-04-10T05:24:53.596Z,12.90
2018-04-10T05:27:21.809Z,12.90
2018-04-10T05:29:49.238Z,12.90
2018-04-10T05:32:17.445Z,13.00
2018-04-10T05:34:44.873Z,12.90
2018-04-10T05:37:12.311Z,13.00
2018-04-10T05:39:40.517Z,13.00
2018-04-10T05:42:07.956Z,13.00
2018-04-10T05:44:36.161Z,13.00
2018-04-10T05:47:03.621Z,13.00
2018-04-10T05:49:31.063Z,13.00
2018-04-10T05:51:58.499Z,13.00
2018-04-10T05:54:25.936Z,13.00
2018-04-10T05:56:54.148Z,13.10
2018-04-10T05:59:21.580Z,13.10
2018-04-10T06:01:49.802Z,13.20
2018-04-10T06:04:17.233Z,13.10
2018-04-10T06:06:44.687Z,13.10
2018-04-10T06:09:12.112Z,13.20
2018-04-10T06:11:40.321Z,13.20
2018-04-10T06:14:07.756Z,13.20
2018-04-10T06:16:35.960Z,13.40
2018-04-10T06:19:03.410Z,13.40
2018-04-10T06:21:30.843Z,13.50
2018-04-10T06:23:59.052Z,13.70
2018-04-10T06:26:26.494Z,13.60
2018-04-10T06:28:53.956Z,13.80
2018-04-10T06:31:24.839Z,13.80
2018-04-10T06:33:52.284Z,13.90
2018-04-10T06:36:19.723Z,14.00
2018-04-10T06:38:47.168Z,14.00
2018-04-10T06:41:14.608Z,14.00
2018-04-10T06:43:42.052Z,14.00
2018-04-10T06:46:19.692Z,14.10
2018-04-10T06:48:47.144Z,14.10
2018-04-10T06:51:14.603Z,14.10
2018-04-10T06:53:42.049Z,14.10
2018-04-10T06:56:09.485Z,14.20
2018-04-10T06:58:36.927Z,14.20
2018-04-10T07:01:04.388Z,14.30
2018-04-10T07:03:31.836Z,14.30
2018-04-10T07:06:00.049Z,14.40
2018-04-10T07:08:27.503Z,14.40
2018-04-10T07:10:54.935Z,14.40
2018-04-10T07:13:22.401Z,14.50
2018-04-10T07:15:50.581Z,14.60
2018-04-10T07:18:18.028Z,14.60
2018-04-10T07:20:45.458Z,14.60
2018-04-10T07:23:13.680Z,14.70
2018-04-10T07:25:41.127Z,14.70
2018-04-10T07:28:08.563Z,14.70
2018-04-10T07:30:35.999Z,14.70
2018-04-10T07:33:04.237Z,14.80
2018-04-10T07:35:31.668Z,14.80
2018-04-10T07:37:59.100Z,14.80
2018-04-10T07:40:26.541Z,14.90
2018-04-10T07:42:54.741Z,15.00
2018-04-10T07:45:22.189Z,15.00
2018-04-10T07:47:49.631Z,15.00
2018-04-10T07:50:17.828Z,15.10
2018-04-10T07:52:45.263Z,15.10
2018-04-10T07:55:13.471Z,15.20
2018-04-10T07:57:40.909Z,15.10
2018-04-10T08:00:08.348Z,15.30
2018-04-10T08:02:36.552Z,15.50
2018-04-10T08:05:03.988Z,15.50
2018-04-10T08:07:31.419Z,15.60
2018-04-10T08:09:59.624Z,15.70
2018-04-10T08:12:27.060Z,15.70
2018-04-10T08:14:55.271Z,15.90
2018-04-10T08:17:22.704Z,15.90
2018-04-10T08:19:50.153Z,16.00
2018-04-10T08:22:18.366Z,16.30
2018-04-10T08:24:45.792Z,16.30
2018-04-10T08:27:13.219Z,16.50
2018-04-10T08:29:40.660Z,16.60
2018-04-10T08:32:08.100Z,16.80
2018-04-10T08:40:17.303Z,17.20
2018-04-10T08:42:44.784Z,17.20
2018-04-10T08:45:13.042Z,17.30
2018-04-10T08:47:40.524Z,17.30
2018-04-10T08:50:08.023Z,17.40
2018-04-10T08:52:36.271Z,17.50
2018-04-10T08:55:03.771Z,17.50
2018-04-10T08:57:31.249Z,17.60
2018-04-10T08:59:58.754Z,17.70
2018-04-10T09:02:26.229Z,17.80
2018-04-10T09:04:53.708Z,17.90
2018-04-10T09:13:04.905Z,18.10
2018-04-10T09:15:32.345Z,18.30
2018-04-10T09:17:59.776Z,18.30
2018-04-10T09:20:27.220Z,18.20
2018-04-10T09:22:54.647Z,18.20
2018-04-10T09:25:22.876Z,18.30
2018-04-10T09:27:50.312Z,18.30
2018-04-10T09:30:17.740Z,18.30
2018-04-10T09:32:45.948Z,18.30
2018-04-10T09:35:13.387Z,18.30
2018-04-10T09:37:40.823Z,18.40
2018-04-10T09:40:09.015Z,18.40
2018-04-10T09:42:36.451Z,18.40
2018-04-10T09:45:04.660Z,18.40
2018-04-10T09:47:32.100Z,18.40
2018-04-10T09:49:59.531Z,18.40
2018-04-10T09:52:26.972Z,18.50
2018-04-10T09:54:54.416Z,18.60
2018-04-10T09:57:21.855Z,18.70
2018-04-10T09:59:49.284Z,18.80
2018-04-10T10:02:16.724Z,18.90
2018-04-10T10:04:44.920Z,19.00
2018-04-10T10:07:12.377Z,18.90
2018-04-10T10:09:39.813Z,19.10
2018-04-10T10:12:08.021Z,19.00
2018-04-10T10:14:35.448Z,18.90
2018-04-10T10:17:03.652Z,19.00
2018-04-10T10:19:31.112Z,19.00
2018-04-10T10:21:58.552Z,19.00
2018-04-10T10:24:25.991Z,19.00
2018-04-10T10:26:54.195Z,19.00
2018-04-10T10:29:21.623Z,19.00
2018-04-10T10:31:49.064Z,19.10
2018-04-10T10:34:17.267Z,19.60
2018-04-10T10:36:44.777Z,19.60
2018-04-10T10:39:12.258Z,20.00
2018-04-10T10:41:39.649Z,20.40
2018-04-10T10:44:07.097Z,20.80
2018-04-10T10:46:34.524Z,21.00
2018-04-10T10:49:02.732Z,21.00
2018-04-10T10:51:30.170Z,21.00
2018-04-10T10:53:57.612Z,20.90
2018-04-10T10:56:25.812Z,20.70
2018-04-10T10:58:53.260Z,20.70
2018-04-10T11:01:20.696Z,20.80
2018-04-10T11:03:48.905Z,21.20
2018-04-10T11:06:16.348Z,21.20
2018-04-10T11:08:43.791Z,21.20
2018-04-10T11:11:11.991Z,21.30
2018-04-10T11:13:39.432Z,21.30
2018-04-10T11:16:06.877Z,21.20
2018-04-10T11:18:35.080Z,21.10
2018-04-10T11:21:02.522Z,21.10
2018-04-10T11:23:29.953Z,21.00
2018-04-10T11:25:58.159Z,20.50
2018-04-10T11:28:25.603Z,20.50
2018-04-10T11:30:53.036Z,20.50
2018-04-10T11:33:21.260Z,20.50
2018-04-10T11:35:48.700Z,20.60
2018-04-10T11:38:16.148Z,20.70
2018-04-10T11:40:43.583Z,20.60
2018-04-10T11:43:11.800Z,20.60
2018-04-10T11:45:39.240Z,20.50
2018-04-10T11:48:06.688Z,20.60
2018-04-10T11:50:34.120Z,20.60
2018-04-10T11:53:02.332Z,20.80
2018-04-10T11:55:29.770Z,20.80
2018-04-10T11:57:57.215Z,20.90
2018-04-10T12:00:25.423Z,20.90
2018-04-10T12:02:52.864Z,20.90
2018-04-10T12:05:20.304Z,20.90
2018-04-10T12:07:48.503Z,21.00
2018-04-10T12:10:15.941Z,21.00
2018-04-10T12:12:43.371Z,21.10
2018-04-10T12:15:10.813Z,21.20
2018-04-10T12:17:38.248Z,21.20
2018-04-10T12:20:05.696Z,21.20
2018-04-10T12:22:33.132Z,21.20
2018-04-10T12:25:00.571Z,21.10
2018-04-10T12:27:28.772Z,21.10
2018-04-10T12:29:56.221Z,21.10
2018-04-10T12:32:23.651Z,21.20
2018-04-10T12:34:51.868Z,21.40
2018-04-10T12:37:19.313Z,21.30
2018-04-10T12:39:46.756Z,21.40
2018-04-10T12:42:14.187Z,21.40
2018-04-10T12:44:42.397Z,21.50
2018-04-10T12:47:09.856Z,21.50
2018-04-10T12:49:37.301Z,21.50
2018-04-10T12:52:04.732Z,21.50
2018-04-10T12:54:32.936Z,21.60
2018-04-10T12:57:00.372Z,21.50
2018-04-10T12:59:28.580Z,21.60
2018-04-10T13:01:56.016Z,21.60
2018-04-10T13:04:23.456Z,21.60
2018-04-10T13:06:51.661Z,21.80
2018-04-10T13:09:19.099Z,21.80
2018-04-10T13:11:46.538Z,21.80
2018-04-10T13:14:13.974Z,21.90
2018-04-10T13:16:41.403Z,21.90
2018-04-10T13:19:08.849Z,22.00
2018-04-10T13:21:36.275Z,22.10
2018-04-10T13:24:03.705Z,22.30
2018-04-10T13:26:34.872Z,22.50
2018-04-10T13:29:02.267Z,22.40
2018-04-10T13:31:29.710Z,22.40
2018-04-10T13:33:57.148Z,22.30
2018-04-10T13:36:24.591Z,22.20
2018-04-10T13:38:52.800Z,21.80
2018-04-10T13:41:20.258Z,21.80
2018-04-10T13:43:47.680Z,21.60
2018-04-10T13:46:15.123Z,21.60
2018-04-10T13:48:43.324Z,21.80
2018-04-10T13:51:10.764Z,21.80
2018-04-10T13:53:38.961Z,21.90
2018-04-10T13:56:06.400Z,21.90
2018-04-10T13:58:33.832Z,22.00
2018-04-10T14:01:01.273Z,22.10
2018-04-10T14:03:28.704Z,22.10
2018-04-10T14:05:56.143Z,22.10
2018-04-10T14:08:23.581Z,22.20
2018-04-10T14:10:51.020Z,22.20
2018-04-10T14:13:19.220Z,22.30
2018-04-10T14:15:46.660Z,22.30
2018-04-10T14:18:14.092Z,22.30
2018-04-10T14:20:41.536Z,22.30
2018-04-10T14:23:08.975Z,22.30
2018-04-10T14:25:36.417Z,22.20
2018-04-10T14:28:03.848Z,22.10
2018-04-10T14:30:31.289Z,22.10
2018-04-10T14:32:59.498Z,22.30
2018-04-10T14:35:26.935Z,22.30
2018-04-10T14:37:54.380Z,22.40
2018-04-10T14:40:22.580Z,22.40
2018-04-10T14:42:50.031Z,22.40
2018-04-10T14:45:17.461Z,22.30
2018-04-10T14:47:45.675Z,22.30
2018-04-10T14:50:13.107Z,22.30
2018-04-10T14:52:40.544Z,22.20
2018-04-10T14:55:08.752Z,22.00
2018-04-10T14:57:36.191Z,22.00
2018-04-10T15:00:03.628Z,21.80
2018-04-10T15:02:31.832Z,21.00
2018-04-10T15:04:59.269Z,21.00
2018-04-10T15:07:27.484Z,19.50
2018-04-10T15:09:54.912Z,19.40
2018-04-10T15:12:22.355Z,19.00
2018-04-10T15:14:50.553Z,18.10
2018-04-10T15:17:17.991Z,18.10
2018-04-10T15:19:45.453Z,17.60
2018-04-10T15:22:13.662Z,17.10
2018-04-10T15:24:41.091Z,17.10
2018-04-10T15:27:08.535Z,16.80
2018-04-10T15:29:35.963Z,16.20
2018-04-10T15:32:03.408Z,15.80
2018-04-10T15:34:30.848Z,15.70
2018-04-10T15:36:58.303Z,15.40
2018-04-10T15:39:25.741Z,15.00
2018-04-10T15:41:53.176Z,14.80
2018-04-10T15:44:20.649Z,14.60
2018-04-10T15:46:48.077Z,14.50
2018-04-10T15:49:16.279Z,14.40
2018-04-10T15:51:43.716Z,14.40
2018-04-10T15:54:11.162Z,14.00
2018-04-10T15:56:39.361Z,13.70
2018-04-10T15:59:06.813Z,13.70
2018-04-10T16:01:34.240Z,13.60
2018-04-10T16:04:02.443Z,13.30
2018-04-10T16:06:29.885Z,13.30
2018-04-10T16:08:58.085Z,13.20
2018-04-10T16:11:25.528Z,13.20
2018-04-10T16:13:52.971Z,13.10
2018-04-10T16:16:20.408Z,13.10
2018-04-10T16:18:48.616Z,12.90
2018-04-10T16:21:16.052Z,12.90
2018-04-10T16:23:44.258Z,12.80
2018-04-10T16:26:11.696Z,12.80
2018-04-10T16:28:39.133Z,12.70
2018-04-10T16:31:07.736Z,12.60
2018-04-10T16:33:35.184Z,12.60
2018-04-10T16:36:02.623Z,12.50
2018-04-10T16:38:30.836Z,12.40
2018-04-10T16:40:58.264Z,12.40
2018-04-10T16:43:26.472Z,12.40
2018-04-10T16:45:53.907Z,12.40
2018-04-10T16:48:21.352Z,12.40
2018-04-10T16:50:48.799Z,12.30
2018-04-10T16:53:17.034Z,11.70
2018-04-10T16:55:44.436Z,11.70
2018-04-10T16:58:12.631Z,11.10
2018-04-10T17:00:40.074Z,11.00
2018-04-10T17:03:07.511Z,10.80
2018-04-10T17:05:35.716Z,10.60
2018-04-10T17:08:03.150Z,10.60
2018-04-10T17:10:31.360Z,10.50
2018-04-10T17:12:58.787Z,10.50
2018-04-10T17:15:26.231Z,10.50
2018-04-10T17:17:54.441Z,10.40
2018-04-10T17:20:21.868Z,10.40
2018-04-10T17:22:50.069Z,10.20
2018-04-10T17:25:17.516Z,10.20
2018-04-10T17:27:44.998Z,10.20
2018-04-10T17:30:13.155Z,10.10
2018-04-10T17:32:40.604Z,10.10
2018-04-10T17:35:08.050Z,10.10
2018-04-10T17:37:35.492Z,10.10
2018-04-10T17:40:03.696Z,10.00
2018-04-10T17:42:31.127Z,10.10
2018-04-10T17:44:59.336Z,10.10
2018-04-10T17:47:26.768Z,10.10
2018-04-10T17:49:54.211Z,10.10
2018-04-10T17:52:22.410Z,10.00
2018-04-10T17:54:49.856Z,10.00
2018-04-10T17:57:17.296Z,10.00
2018-04-10T17:59:45.508Z,9.90
2018-04-10T18:02:12.939Z,9.90
2018-04-10T18:04:40.389Z,9.80
2018-04-10T18:07:08.601Z,9.80
2018-04-10T18:09:36.028Z,9.80
2018-04-10T18:12:03.468Z,9.80
2018-04-10T18:14:30.905Z,9.80
2018-04-10T18:16:58.327Z,9.90
2018-04-10T18:19:25.759Z,9.90
2018-04-10T18:21:53.200Z,9.90
2018-04-10T18:24:20.640Z,9.90
2018-04-10T18:26:48.844Z,9.90
2018-04-10T18:29:16.287Z,9.90
2018-04-10T18:31:44.484Z,10.00
2018-04-10T18:34:11.918Z,9.90
2018-04-10T18:36:39.361Z,10.00
2018-04-10T18:39:07.566Z,10.00
2018-04-10T18:41:35.057Z,10.00
2018-04-10T18:44:02.451Z,10.00
2018-04-10T18:46:30.681Z,10.00
2018-04-10T18:48:58.108Z,9.90
2018-04-10T18:51:25.556Z,10.00
2018-04-10T18:53:52.995Z,9.90
2018-04-10T18:56:21.197Z,10.10
2018-04-10T18:58:48.642Z,10.00
2018-04-10T19:01:16.100Z,10.10
2018-04-10T19:03:43.527Z,10.10
2018-04-10T19:06:11.739Z,10.00
2018-04-10T19:08:39.176Z,10.00
2018-04-10T19:11:06.613Z,10.00
2018-04-10T19:13:34.824Z,10.10
2018-04-10T19:16:02.255Z,10.10
2018-04-10T19:18:29.695Z,10.20
2018-04-10T19:20:57.901Z,10.30
2018-04-10T19:23:25.347Z,10.20
2018-04-10T19:25:52.779Z,10.20
2018-04-10T19:28:20.216Z,10.20
2018-04-10T19:30:47.651Z,10.30
2018-04-10T19:33:15.092Z,10.30
2018-04-10T19:35:42.539Z,10.30
2018-04-10T19:38:09.997Z,10.40
2018-04-10T19:40:37.427Z,10.40
2018-04-10T19:43:05.634Z,10.40
2018-04-10T19:45:33.115Z,10.30
2018-04-10T19:48:01.273Z,10.30
2018-04-10T19:50:28.708Z,10.30
2018-04-10T19:52:56.146Z,10.30
2018-04-10T19:55:24.349Z,10.20
2018-04-10T19:57:51.787Z,10.20
2018-04-10T20:00:19.223Z,10.20
2018-04-10T20:02:46.656Z,10.20
2018-04-10T20:05:14.087Z,10.20
2018-04-10T20:07:41.541Z,10.10
2018-04-10T20:10:08.976Z,10.20
2018-04-10T20:12:36.432Z,10.20
2018-04-10T20:15:03.864Z,10.20
2018-04-10T20:17:31.297Z,10.20
2018-04-10T20:19:58.731Z,10.20
2018-04-10T20:22:26.175Z,10.20
2018-04-10T20:24:53.618Z,10.30
2018-04-10T20:27:21.061Z,10.30
2018-04-10T20:29:49.264Z,10.40
2018-04-10T20:32:16.697Z,10.40
2018-04-10T20:34:44.136Z,10.50
2018-04-10T20:37:12.344Z,10.60
2018-04-10T20:39:39.806Z,10.50
2018-04-10T20:42:07.237Z,10.60
2018-04-10T20:44:34.675Z,10.60
2018-04-10T20:47:02.877Z,10.50
2018-04-10T20:49:30.320Z,10.50
2018-04-10T20:51:57.752Z,10.50
2018-04-10T20:54:25.960Z,10.40
2018-04-10T20:56:53.388Z,10.40
2018-04-10T20:59:21.603Z,10.40
2018-04-10T21:01:49.037Z,10.40
2018-04-10T21:04:16.476Z,10.40
2018-04-10T21:06:44.681Z,10.30
2018-04-10T21:09:12.124Z,10.20
2018-04-10T21:11:39.552Z,10.20
2018-04-10T21:14:07.759Z,10.30
2018-04-10T21:16:35.196Z,10.30
2018-04-10T21:19:03.407Z,10.30
2018-04-10T21:21:30.840Z,10.30
2018-04-10T21:23:58.313Z,10.30
2018-04-10T21:26:25.748Z,10.30
2018-04-10T21:28:53.216Z,10.30
2018-04-10T21:31:20.685Z,10.30
2018-04-10T21:33:48.119Z,10.20
2018-04-10T21:36:15.579Z,10.20
2018-04-10T21:38:43.016Z,10.10
2018-04-10T21:41:11.238Z,10.20
2018-04-10T21:43:38.672Z,10.20
2018-04-10T21:46:06.152Z,10.20
2018-04-10T21:48:33.583Z,10.20
2018-04-10T21:51:01.023Z,10.30
2018-04-10T21:53:29.328Z,10.30
2018-04-10T21:55:56.762Z,10.30
2018-04-10T21:58:24.952Z,10.30
2018-04-10T22:00:52.394Z,10.30
2018-04-10T22:03:19.829Z,10.30
2018-04-10T22:05:48.032Z,10.20
2018-04-10T22:08:15.464Z,10.20
2018-04-10T22:10:43.667Z,10.20
2018-04-10T22:13:11.101Z,10.20
2018-04-10T22:15:39.309Z,10.20
2018-04-10T22:18:06.748Z,10.20
2018-04-10T22:20:34.180Z,10.20
2018-04-10T22:23:02.379Z,10.30
2018-04-10T22:25:29.845Z,10.30
2018-04-10T22:27:57.281Z,10.30
2018-04-10T22:30:24.723Z,10.40
2018-04-10T22:32:52.900Z,10.30
2018-04-10T22:35:20.328Z,10.30
2018-04-10T22:37:48.540Z,10.20
2018-04-10T22:40:15.976Z,10.20
2018-04-10T22:42:43.425Z,10.10
2018-04-10T22:45:10.860Z,10.10
2018-04-10T22:47:39.065Z,10.20
2018-04-10T22:50:06.504Z,10.20
2018-04-10T22:52:34.729Z,10.30
2018-04-10T22:55:02.160Z,10.30
2018-04-10T22:57:29.600Z,10.30
2018-04-10T22:59:57.037Z,10.40
2018-04-10T23:02:25.236Z,10.30
2018-04-10T23:04:52.676Z,10.30
2018-04-10T23:07:20.892Z,10.20
2018-04-10T23:09:48.349Z,10.20
2018-04-10T23:12:15.813Z,10.20
2018-04-10T23:14:43.240Z,10.20
2018-04-10T23:17:10.696Z,10.30
2018-04-10T23:19:38.903Z,10.30
2018-04-10T23:22:06.351Z,10.20
2018-04-10T23:24:33.789Z,10.30
2018-04-10T23:27:01.996Z,10.20
2018-04-10T23:29:29.430Z,10.20
2018-04-10T23:31:56.876Z,10.20
2018-04-10T23:34:25.072Z,10.20
2018-04-10T23:36:52.543Z,10.20
2018-04-10T23:39:19.964Z,10.10
2018-04-10T23:41:48.208Z,10.10
2018-04-10T23:44:15.641Z,10.00
2018-04-10T23:46:43.089Z,10.00
2018-04-10T23:49:10.531Z,10.00
2018-04-10T23:51:37.957Z,10.00
2018-04-10T23:54:06.168Z,10.00
2018-04-10T23:56:33.608Z,10.00
2018-04-10T23:59:01.061Z,10.00
